Time;durP1;ratioP1;P1;durP2;ratioP2;P2;SDS_P1;SDS_P2;PMS_P1;PMS_P2;Temp;Humidity;BMP_temperature;BMP_pressure;BME280_temperature;BME280_humidity;BME280_pressure;Samples;Min_cycle;Max_cycle;Signal;HPM_P1;HPM_P2
2023/07/22 00:01:26;;;;;;;4.10;2.38;;;18.40;72.50;;;;;;4960929;28;20065;-21
2023/07/22 00:03:51;;;;;;;4.27;2.53;;;18.50;72.50;;;;;;4984329;28;20045;-20
2023/07/22 00:06:17;;;;;;;6.72;2.80;;;18.50;72.50;;;;;;4982452;28;20026;-20
2023/07/22 00:08:43;;;;;;;4.63;2.90;;;18.50;72.50;;;;;;4963407;28;20173;-20
2023/07/22 00:11:09;;;;;;;5.47;2.60;;;18.50;72.40;;;;;;4986058;28;20069;-21
2023/07/22 00:13:35;;;;;;;5.05;2.85;;;18.50;72.40;;;;;;4950783;28;20660;-21
2023/07/22 00:16:03;;;;;;;4.93;2.70;;;18.50;72.40;;;;;;4978087;28;20042;-21
2023/07/22 00:18:30;;;;;;;5.07;2.88;;;18.50;72.40;;;;;;4969651;28;20054;-23
2023/07/22 00:20:57;;;;;;;4.13;2.90;;;18.50;72.50;;;;;;4983749;28;20479;-22
2023/07/22 00:23:23;;;;;;;5.45;2.78;;;18.50;72.50;;;;;;4973333;28;20026;-21
2023/07/22 00:25:49;;;;;;;5.10;2.88;;;18.50;72.60;;;;;;4980801;28;20443;-22
2023/07/22 00:28:15;;;;;;;4.60;2.87;;;18.50;72.70;;;;;;4954215;28;20025;-22
2023/07/22 00:30:41;;;;;;;4.13;2.72;;;18.50;72.70;;;;;;4963839;28;20073;-21
2023/07/22 00:33:08;;;;;;;4.03;2.60;;;18.50;72.70;;;;;;4978282;28;20034;-23
2023/07/22 00:35:33;;;;;;;4.50;2.70;;;18.50;72.70;;;;;;4981199;28;20682;-22
2023/07/22 00:38:00;;;;;;;5.07;3.17;;;18.50;72.70;;;;;;4985429;28;20026;-20
2023/07/22 00:40:26;;;;;;;5.55;2.72;;;18.50;72.70;;;;;;4951741;28;20069;-22
2023/07/22 00:42:51;;;;;;;4.22;2.53;;;18.50;72.60;;;;;;4954502;28;20684;-21
2023/07/22 00:45:17;;;;;;;4.60;2.57;;;18.60;72.60;;;;;;4988189;28;20104;-22
2023/07/22 00:47:44;;;;;;;3.97;2.50;;;18.60;72.50;;;;;;4962016;28;20452;-21
2023/07/22 00:50:10;;;;;;;4.32;2.50;;;18.60;72.50;;;;;;4983829;28;20161;-26
2023/07/22 00:52:37;;;;;;;4.60;2.90;;;18.60;72.50;;;;;;4971492;28;20030;-20
2023/07/22 00:55:04;;;;;;;4.85;3.03;;;18.60;72.70;;;;;;4962711;28;20230;-20
2023/07/22 00:57:30;;;;;;;5.22;3.00;;;18.60;73.00;;;;;;4945845;28;20407;-21
2023/07/22 00:59:56;;;;;;;5.55;2.80;;;18.60;72.80;;;;;;4983842;28;20034;-23
2023/07/22 01:02:23;;;;;;;6.43;2.90;;;18.60;72.80;;;;;;4978418;28;20387;-21
2023/07/22 01:04:50;;;;;;;5.57;3.10;;;18.60;72.80;;;;;;4980106;28;20062;-21
2023/07/22 01:07:16;;;;;;;4.20;2.55;;;18.60;72.80;;;;;;4984957;28;20089;-21
2023/07/22 01:09:43;;;;;;;4.13;2.67;;;18.60;72.80;;;;;;4985166;28;20030;-24
2023/07/22 01:12:09;;;;;;;4.72;2.53;;;18.60;72.80;;;;;;4964435;28;22282;-21
2023/07/22 01:14:37;;;;;;;5.22;2.70;;;18.60;72.70;;;;;;4971898;28;20636;-22
2023/07/22 01:17:04;;;;;;;4.15;2.70;;;18.60;72.80;;;;;;4972784;28;20040;-20
2023/07/22 01:19:31;;;;;;;5.13;2.97;;;18.60;72.90;;;;;;4978317;28;20049;-21
2023/07/22 01:22:02;;;;;;;4.20;2.73;;;18.60;72.80;;;;;;4983711;28;20033;-22
2023/07/22 01:24:31;;;;;;;5.10;2.90;;;18.60;72.80;;;;;;4987983;28;20524;-21
2023/07/22 01:26:57;;;;;;;4.88;3.08;;;18.60;72.90;;;;;;4963332;28;20058;-21
2023/07/22 01:29:24;;;;;;;4.68;2.90;;;18.60;73.10;;;;;;4915706;28;20500;-21
2023/07/22 01:31:52;;;;;;;4.30;2.60;;;18.60;73.10;;;;;;4980679;28;20551;-21
2023/07/22 01:34:18;;;;;;;5.37;2.83;;;18.60;73.30;;;;;;4973754;28;20109;-21
2023/07/22 01:36:48;;;;;;;4.82;2.90;;;18.60;73.10;;;;;;4987276;28;20922;-22
2023/07/22 01:39:14;;;;;;;5.30;2.97;;;18.60;73.10;;;;;;4987008;28;20558;-20
2023/07/22 01:41:41;;;;;;;5.10;2.75;;;18.60;73.10;;;;;;4986226;28;20595;-26
2023/07/22 01:44:07;;;;;;;4.35;2.75;;;18.60;73.10;;;;;;4983221;28;20690;-23
2023/07/22 01:46:33;;;;;;;4.77;2.77;;;18.60;73.20;;;;;;4958876;28;20117;-23
2023/07/22 01:48:59;;;;;;;4.82;2.55;;;18.60;73.10;;;;;;4972207;28;20238;-21
2023/07/22 01:51:25;;;;;;;5.33;2.70;;;18.60;73.20;;;;;;4959649;28;20043;-21
2023/07/22 01:53:51;;;;;;;4.75;2.58;;;18.60;73.10;;;;;;4986523;28;20026;-21
2023/07/22 01:56:17;;;;;;;5.68;2.78;;;18.60;73.10;;;;;;4981342;28;20064;-21
2023/07/22 01:58:43;;;;;;;5.27;2.80;;;18.50;73.10;;;;;;4972717;28;20073;-23
2023/07/22 02:01:08;;;;;;;5.93;3.10;;;18.60;73.30;;;;;;4930277;28;20121;-21
2023/07/22 02:03:34;;;;;;;4.93;2.90;;;18.50;73.30;;;;;;4990017;28;20664;-21
2023/07/22 02:06:04;;;;;;;5.13;3.13;;;18.50;73.30;;;;;;4973275;28;20105;-24
2023/07/22 02:08:30;;;;;;;5.35;3.00;;;18.50;73.30;;;;;;4989324;28;20381;-23
2023/07/22 02:11:06;;;;;;;5.63;2.78;;;18.40;73.30;;;;;;4982774;28;20049;-22
2023/07/22 02:13:32;;;;;;;4.30;2.80;;;18.40;73.30;;;;;;4972757;28;20065;-20
2023/07/22 02:15:58;;;;;;;4.97;2.93;;;18.40;73.10;;;;;;4946638;28;20616;-24
2023/07/22 02:18:24;;;;;;;5.13;2.97;;;18.40;73.20;;;;;;4990628;28;20038;-21
2023/07/22 02:20:50;;;;;;;4.50;2.90;;;18.30;73.10;;;;;;4967646;28;20076;-22
2023/07/22 02:23:16;;;;;;;4.50;2.60;;;18.30;73.20;;;;;;4976613;28;20340;-24
2023/07/22 02:25:41;;;;;;;4.32;2.58;;;18.20;73.20;;;;;;4989389;28;20029;-23
2023/07/22 02:28:07;;;;;;;6.27;2.77;;;18.20;73.20;;;;;;4978958;28;20026;-20
2023/07/22 02:30:37;;;;;;;5.50;2.80;;;18.10;74.00;;;;;;4965801;28;20088;-21
2023/07/22 02:33:05;;;;;;;5.65;3.17;;;18.10;73.40;;;;;;4959103;28;20049;-20
2023/07/22 02:35:31;;;;;;;4.82;2.67;;;18.10;73.40;;;;;;4971470;28;20634;-20
2023/07/22 02:37:56;;;;;;;5.87;2.80;;;18.00;73.50;;;;;;4974641;28;20034;-21
2023/07/22 02:40:22;;;;;;;4.72;2.45;;;17.90;73.50;;;;;;4986149;28;20034;-25
2023/07/22 02:42:48;;;;;;;4.80;2.80;;;17.90;73.60;;;;;;4948783;28;20034;-20
2023/07/22 02:45:13;;;;;;;6.00;2.78;;;17.80;73.60;;;;;;4978724;28;20306;-23
2023/07/22 02:47:39;;;;;;;8.70;2.90;;;17.80;73.70;;;;;;4971152;28;20054;-21
2023/07/22 02:50:08;;;;;;;4.97;2.67;;;17.80;73.70;;;;;;4983700;28;20034;-24
2023/07/22 02:52:34;;;;;;;5.47;2.83;;;17.70;73.70;;;;;;4977187;28;20030;-22
2023/07/22 02:55:30;;;;;;;4.97;2.60;;;17.70;73.70;;;;;;4981627;28;20060;-21
2023/07/22 02:57:58;;;;;;;5.18;2.50;;;17.60;74.20;;;;;;4967980;28;20037;-22
2023/07/22 03:00:24;;;;;;;5.00;2.60;;;17.60;74.00;;;;;;4963370;28;20595;-21
2023/07/22 03:03:00;;;;;;;4.95;2.80;;;17.50;74.00;;;;;;4954904;28;20048;-21
2023/07/22 03:05:28;;;;;;;5.80;2.87;;;17.50;74.30;;;;;;4976248;28;20038;-20
2023/07/22 03:07:54;;;;;;;5.38;3.10;;;17.50;74.40;;;;;;4974491;28;20091;-21
2023/07/22 03:10:19;;;;;;;6.70;2.90;;;17.40;74.40;;;;;;4987409;28;20033;-22
2023/07/22 03:12:45;;;;;;;4.80;2.60;;;17.40;74.50;;;;;;4989458;28;20038;-21
2023/07/22 03:15:12;;;;;;;5.75;3.10;;;17.30;74.50;;;;;;4968245;28;20045;-20
2023/07/22 03:17:39;;;;;;;5.63;2.85;;;17.30;74.50;;;;;;4967303;28;20125;-22
2023/07/22 03:20:09;;;;;;;5.60;2.70;;;17.30;74.60;;;;;;4984350;28;20038;-20
2023/07/22 03:22:34;;;;;;;4.50;2.53;;;17.30;74.70;;;;;;4963540;28;20462;-21
2023/07/22 03:25:00;;;;;;;5.50;2.70;;;17.30;74.80;;;;;;4987324;28;20120;-24
2023/07/22 03:27:26;;;;;;;7.10;2.97;;;17.20;74.70;;;;;;4986930;28;20069;-21
2023/07/22 03:29:51;;;;;;;5.43;2.70;;;17.20;74.80;;;;;;4981249;28;20435;-23
2023/07/22 03:32:17;;;;;;;5.27;2.80;;;17.20;74.90;;;;;;4957893;28;20234;-21
2023/07/22 03:34:43;;;;;;;5.57;2.92;;;17.10;74.80;;;;;;4974046;28;20488;-22
2023/07/22 03:37:12;;;;;;;6.67;2.90;;;17.10;75.10;;;;;;4978258;28;20405;-24
2023/07/22 03:39:37;;;;;;;5.25;3.00;;;17.10;75.10;;;;;;4979742;28;20087;-20
2023/07/22 03:42:03;;;;;;;6.47;3.15;;;17.10;75.30;;;;;;4980047;28;20221;-23
2023/07/22 03:44:29;;;;;;;7.73;3.17;;;17.10;75.30;;;;;;4987316;28;23748;-22
2023/07/22 03:46:55;;;;;;;4.75;2.63;;;17.00;75.40;;;;;;4970007;28;20035;-21
2023/07/22 03:49:20;;;;;;;6.00;3.30;;;17.00;75.40;;;;;;4949893;28;20042;-25
2023/07/22 03:51:46;;;;;;;5.18;2.85;;;17.00;75.40;;;;;;4970486;28;20026;-21
2023/07/22 03:54:12;;;;;;;5.83;2.90;;;16.90;75.50;;;;;;4973603;28;20088;-21
2023/07/22 03:56:40;;;;;;;6.00;2.85;;;16.90;75.60;;;;;;4984114;28;20466;-20
2023/07/22 03:59:06;;;;;;;5.55;2.92;;;16.90;76.50;;;;;;4979254;28;20183;-21
2023/07/22 04:01:32;;;;;;;5.67;2.90;;;16.90;75.80;;;;;;4984462;28;20037;-21
2023/07/22 04:03:57;;;;;;;5.60;2.97;;;16.90;76.60;;;;;;4946871;28;20493;-23
2023/07/22 04:06:23;;;;;;;5.87;3.20;;;16.80;75.70;;;;;;4968800;28;20030;-25
2023/07/22 04:08:49;;;;;;;7.75;2.90;;;16.80;75.80;;;;;;4979287;28;20606;-21
2023/07/22 04:11:15;;;;;;;5.87;3.13;;;16.80;75.90;;;;;;4961335;28;20044;-20
2023/07/22 04:13:41;;;;;;;5.80;3.17;;;16.80;76.00;;;;;;5001582;28;20034;-21
2023/07/22 04:16:06;;;;;;;5.63;2.85;;;16.80;76.20;;;;;;4966334;28;20049;-21
2023/07/22 04:18:34;;;;;;;4.63;3.00;;;16.80;76.20;;;;;;4975332;28;20033;-20
2023/07/22 04:21:00;;;;;;;6.18;2.97;;;16.80;76.30;;;;;;4953631;28;20122;-21
2023/07/22 04:23:27;;;;;;;6.97;2.83;;;16.70;77.30;;;;;;4975796;28;20038;-21
2023/07/22 04:25:52;;;;;;;5.83;3.10;;;16.80;76.70;;;;;;4969877;28;20149;-22
2023/07/22 04:28:18;;;;;;;5.00;2.88;;;16.80;76.80;;;;;;4984442;28;20235;-21
2023/07/22 04:30:58;;;;;;;5.63;3.00;;;16.80;76.90;;;;;;4986795;28;20061;-20
2023/07/22 04:33:25;;;;;;;4.93;2.70;;;16.80;77.30;;;;;;4980009;28;20324;-21
2023/07/22 04:35:52;;;;;;;5.82;2.85;;;16.80;77.00;;;;;;4950759;28;20070;-23
2023/07/22 04:38:18;;;;;;;6.10;2.88;;;16.90;77.20;;;;;;4973451;28;20451;-23
2023/07/22 04:40:44;;;;;;;5.70;2.90;;;16.90;77.30;;;;;;4977766;28;20041;-21
2023/07/22 04:43:10;;;;;;;6.15;2.88;;;16.90;77.30;;;;;;4989454;28;20041;-22
2023/07/22 04:45:35;;;;;;;6.07;3.08;;;16.90;77.30;;;;;;5006290;28;20488;-20
2023/07/22 04:48:02;;;;;;;5.80;3.00;;;17.00;77.50;;;;;;4954949;28;21048;-22
2023/07/22 04:50:28;;;;;;;5.90;3.20;;;17.00;77.60;;;;;;5000177;28;20526;-25
2023/07/22 04:52:54;;;;;;;7.18;3.17;;;17.00;77.60;;;;;;4956237;28;20068;-23
2023/07/22 04:55:20;;;;;;;6.10;3.10;;;17.00;77.60;;;;;;4975646;28;20069;-22
2023/07/22 04:57:46;;;;;;;5.55;3.22;;;17.10;77.70;;;;;;4996675;28;20037;-25
2023/07/22 05:00:19;;;;;;;6.37;3.50;;;17.10;77.80;;;;;;4991647;28;20101;-20
2023/07/22 05:02:49;;;;;;;6.75;3.20;;;17.10;77.70;;;;;;4974475;28;20546;-21
2023/07/22 05:05:16;;;;;;;5.20;3.00;;;17.10;77.90;;;;;;4967689;28;20425;-23
2023/07/22 05:07:42;;;;;;;6.43;3.33;;;17.20;77.90;;;;;;4957884;28;20053;-26
2023/07/22 05:10:11;;;;;;;7.00;3.25;;;17.20;77.90;;;;;;4991651;28;20030;-22
2023/07/22 05:12:41;;;;;;;5.23;2.97;;;17.20;77.90;;;;;;4980964;28;20037;-23
2023/07/22 05:15:07;;;;;;;5.28;3.20;;;17.20;78.10;;;;;;4987960;28;20122;-22
2023/07/22 05:17:33;;;;;;;7.07;3.40;;;17.30;78.10;;;;;;4985599;28;20030;-21
2023/07/22 05:19:59;;;;;;;6.35;3.00;;;17.30;78.10;;;;;;4972723;28;20041;-20
2023/07/22 05:22:25;;;;;;;7.13;3.00;;;17.30;78.10;;;;;;4958523;28;20034;-21
2023/07/22 05:24:51;;;;;;;7.97;3.45;;;17.30;78.40;;;;;;4977644;28;20023;-21
2023/07/22 05:27:19;;;;;;;5.90;3.10;;;17.30;78.20;;;;;;4995609;28;20064;-21
2023/07/22 05:29:45;;;;;;;5.53;2.80;;;17.30;78.30;;;;;;5004471;28;20034;-21
2023/07/22 05:32:11;;;;;;;6.35;3.42;;;17.30;78.10;;;;;;5001037;28;20105;-24
2023/07/22 05:34:37;;;;;;;5.93;3.00;;;17.30;78.20;;;;;;4976082;28;20446;-20
2023/07/22 05:37:03;;;;;;;6.78;3.13;;;17.30;78.20;;;;;;4988766;28;20117;-20
2023/07/22 05:39:28;;;;;;;6.18;3.00;;;17.30;78.40;;;;;;4948471;28;20038;-25
2023/07/22 05:41:54;;;;;;;5.80;3.27;;;17.40;78.50;;;;;;4959617;28;20034;-20
2023/07/22 05:44:21;;;;;;;6.85;3.38;;;17.40;78.60;;;;;;4985841;28;20713;-22
2023/07/22 05:46:46;;;;;;;5.72;3.05;;;17.40;78.70;;;;;;4986792;28;20022;-20
2023/07/22 05:49:12;;;;;;;6.73;3.40;;;17.40;78.70;;;;;;4987419;28;20026;-24
2023/07/22 05:51:38;;;;;;;5.30;2.97;;;17.50;78.80;;;;;;4976141;28;20605;-21
2023/07/22 05:54:04;;;;;;;8.30;3.23;;;17.50;78.80;;;;;;4961816;28;20032;-21
2023/07/22 05:56:30;;;;;;;7.13;3.13;;;17.50;78.90;;;;;;4959845;28;20041;-21
2023/07/22 05:58:55;;;;;;;6.43;3.35;;;17.60;79.00;;;;;;4983387;28;20049;-21
2023/07/22 06:01:22;;;;;;;5.93;3.00;;;17.60;79.10;;;;;;4981709;28;20046;-21
2023/07/22 06:03:48;;;;;;;7.28;3.20;;;17.60;79.20;;;;;;4984210;28;20743;-20
2023/07/22 06:06:14;;;;;;;5.57;2.90;;;17.70;79.40;;;;;;4986600;28;20033;-21
2023/07/22 06:08:39;;;;;;;6.65;3.00;;;17.70;79.50;;;;;;4989423;28;20133;-22
2023/07/22 06:11:05;;;;;;;6.70;3.20;;;17.70;79.60;;;;;;4961979;28;20034;-21
2023/07/22 06:13:31;;;;;;;6.10;3.20;;;17.80;79.60;;;;;;4974059;28;20041;-23
2023/07/22 06:15:57;;;;;;;7.45;3.00;;;17.90;79.80;;;;;;4986809;28;20022;-20
2023/07/22 06:18:23;;;;;;;5.83;3.00;;;17.90;79.80;;;;;;4995427;28;20030;-20
2023/07/22 06:20:49;;;;;;;6.20;2.92;;;18.00;80.00;;;;;;4969470;28;20049;-20
2023/07/22 06:23:15;;;;;;;5.00;2.50;;;18.10;80.10;;;;;;4975285;28;20022;-21
2023/07/22 06:25:41;;;;;;;6.00;2.77;;;18.20;80.20;;;;;;4959986;28;20080;-23
2023/07/22 06:28:07;;;;;;;6.53;2.90;;;18.20;80.10;;;;;;4978490;28;20033;-21
2023/07/22 06:30:32;;;;;;;5.28;2.72;;;18.30;80.10;;;;;;4986409;28;20334;-21
2023/07/22 06:32:58;;;;;;;5.20;2.77;;;18.40;80.20;;;;;;4990126;28;20070;-21
2023/07/22 06:35:24;;;;;;;6.30;2.60;;;18.50;80.40;;;;;;4982655;28;20339;-20
2023/07/22 06:37:49;;;;;;;6.13;2.67;;;18.50;80.50;;;;;;4972867;28;20041;-21
2023/07/22 06:40:15;;;;;;;8.57;2.53;;;18.70;80.60;;;;;;4956959;28;20069;-24
2023/07/22 06:42:41;;;;;;;4.80;2.70;;;18.70;80.50;;;;;;4983510;28;20330;-22
2023/07/22 06:45:07;;;;;;;6.75;2.88;;;18.80;80.40;;;;;;4979873;28;20049;-21
2023/07/22 06:47:34;;;;;;;4.97;2.53;;;18.90;80.20;;;;;;4986220;28;20027;-21
2023/07/22 06:50:00;;;;;;;6.38;2.70;;;18.90;80.00;;;;;;4989683;28;20034;-21
2023/07/22 06:52:26;;;;;;;5.03;2.65;;;19.00;80.00;;;;;;4973974;28;21427;-21
2023/07/22 06:54:51;;;;;;;6.20;2.50;;;19.00;79.90;;;;;;4989541;28;20406;-21
2023/07/22 06:57:17;;;;;;;6.03;2.55;;;19.10;79.90;;;;;;4940572;28;20059;-22
2023/07/22 06:59:43;;;;;;;6.22;2.58;;;19.10;80.00;;;;;;4976441;28;20784;-21
2023/07/22 07:02:09;;;;;;;4.53;2.43;;;19.20;80.80;;;;;;4986827;28;20160;-23
2023/07/22 07:04:35;;;;;;;5.85;2.55;;;19.20;80.30;;;;;;5002711;28;20026;-21
2023/07/22 07:07:01;;;;;;;5.10;2.53;;;19.30;80.40;;;;;;4993545;28;20039;-21
2023/07/22 07:09:26;;;;;;;4.78;2.60;;;19.40;80.40;;;;;;4976597;28;20095;-22
2023/07/22 07:11:52;;;;;;;5.97;2.58;;;19.40;80.40;;;;;;4979428;28;20038;-23
2023/07/22 07:14:18;;;;;;;4.47;2.17;;;19.50;80.30;;;;;;4978105;28;20535;-21
2023/07/22 07:16:44;;;;;;;3.92;1.98;;;19.60;80.30;;;;;;4979436;28;20585;-21
2023/07/22 07:19:10;;;;;;;6.10;2.50;;;19.60;80.50;;;;;;4991747;28;20077;-23
2023/07/22 07:21:36;;;;;;;4.70;2.27;;;19.80;80.80;;;;;;4986215;28;20045;-23
2023/07/22 07:24:02;;;;;;;7.22;2.35;;;19.80;80.40;;;;;;5007946;28;20373;-21
2023/07/22 07:26:28;;;;;;;4.50;2.33;;;19.90;80.20;;;;;;4974289;28;20041;-20
2023/07/22 07:28:53;;;;;;;4.60;2.30;;;20.00;80.10;;;;;;4945825;28;20042;-21
2023/07/22 07:31:20;;;;;;;3.78;2.17;;;20.10;80.20;;;;;;4963263;28;20055;-21
2023/07/22 07:33:45;;;;;;;5.53;2.30;;;20.20;80.30;;;;;;4987567;28;20523;-23
2023/07/22 07:36:11;;;;;;;5.07;2.50;;;20.20;80.00;;;;;;4998363;28;20266;-23
2023/07/22 07:38:37;;;;;;;4.57;2.30;;;20.30;79.90;;;;;;4986360;28;20022;-24
2023/07/22 07:41:08;;;;;;;3.30;2.27;;;20.40;79.80;;;;;;4978914;28;20095;-20
2023/07/22 07:43:35;;;;;;;4.10;2.30;;;20.40;79.50;;;;;;4959662;28;20615;-22
2023/07/22 07:46:17;;;;;;;4.95;2.30;;;20.50;79.40;;;;;;4980862;28;20039;-22
2023/07/22 07:48:57;;;;;;;5.03;2.40;;;20.50;79.20;;;;;;4990999;28;20043;-22
2023/07/22 07:51:26;;;;;;;4.57;2.30;;;20.50;79.00;;;;;;4991461;28;20018;-23
2023/07/22 07:53:52;;;;;;;5.50;2.50;;;20.60;79.60;;;;;;4982333;28;20117;-23
2023/07/22 07:56:19;;;;;;;6.32;2.45;;;20.60;79.60;;;;;;4976532;28;20034;-21
2023/07/22 07:58:47;;;;;;;5.22;2.30;;;20.70;79.20;;;;;;4971423;28;20476;-24
2023/07/22 08:01:13;;;;;;;4.10;2.45;;;20.70;79.00;;;;;;4962283;28;20045;-23
2023/07/22 08:03:42;;;;;;;3.17;1.87;;;20.70;78.80;;;;;;4985224;28;20038;-24
2023/07/22 08:06:09;;;;;;;3.60;1.83;;;20.70;78.50;;;;;;4978144;28;20038;-21
2023/07/22 08:08:35;;;;;;;4.97;2.53;;;20.70;78.40;;;;;;4989381;28;20030;-21
2023/07/22 08:11:04;;;;;;;5.35;2.50;;;20.70;78.00;;;;;;4986663;28;20022;-20
2023/07/22 08:13:31;;;;;;;4.20;2.20;;;20.70;77.70;;;;;;4974603;28;20124;-22
2023/07/22 08:16:03;;;;;;;4.73;2.60;;;20.60;77.70;;;;;;4965631;28;20034;-22
2023/07/22 08:18:32;;;;;;;3.78;2.42;;;20.60;77.70;;;;;;4980880;28;20052;-25
2023/07/22 08:20:59;;;;;;;4.68;2.30;;;20.60;77.80;;;;;;4997936;28;20639;-20
2023/07/22 08:23:25;;;;;;;3.22;2.05;;;20.60;78.00;;;;;;4989812;28;20376;-23
2023/07/22 08:25:51;;;;;;;5.35;2.25;;;20.60;78.80;;;;;;4987922;28;20025;-20
2023/07/22 08:28:17;;;;;;;4.97;2.23;;;20.60;79.30;;;;;;4977723;28;20034;-21
2023/07/22 08:30:44;;;;;;;4.53;2.53;;;20.80;79.70;;;;;;4957993;28;20030;-24
2023/07/22 08:33:13;;;;;;;4.70;2.20;;;20.90;79.50;;;;;;4990740;28;20033;-23
2023/07/22 08:35:39;;;;;;;3.97;2.00;;;21.00;79.50;;;;;;4956666;28;20018;-22
2023/07/22 08:38:05;;;;;;;4.82;2.00;;;21.20;79.50;;;;;;4979474;28;20033;-21
2023/07/22 08:40:39;;;;;;;3.25;2.28;;;21.30;79.50;;;;;;4983409;28;20045;-22
2023/07/22 08:43:07;;;;;;;3.60;2.08;;;21.40;78.80;;;;;;4987848;28;20073;-21
2023/07/22 08:45:36;;;;;;;4.03;2.05;;;21.50;79.20;;;;;;4929531;28;20104;-22
2023/07/22 08:48:07;;;;;;;3.80;1.90;;;21.70;78.90;;;;;;4980114;28;20026;-22
2023/07/22 08:51:00;;;;;;;3.22;2.03;;;21.80;78.60;;;;;;4970909;28;20034;-25
2023/07/22 08:53:26;;;;;;;4.43;2.00;;;21.90;78.70;;;;;;4984202;28;20709;-22
2023/07/22 08:55:53;;;;;;;3.00;2.10;;;22.00;79.20;;;;;;4966607;28;20021;-23
2023/07/22 08:58:19;;;;;;;3.00;1.77;;;22.20;79.30;;;;;;4980622;28;20053;-25
2023/07/22 09:00:47;;;;;;;3.83;1.70;;;22.40;79.70;;;;;;4984081;28;20082;-21
2023/07/22 09:03:13;;;;;;;3.53;1.90;;;22.60;80.30;;;;;;4960293;28;20346;-21
2023/07/22 09:05:39;;;;;;;3.45;2.10;;;22.90;81.30;;;;;;5001475;28;20423;-22
2023/07/22 09:08:07;;;;;;;3.65;1.85;;;23.30;81.70;;;;;;4981891;28;20038;-22
2023/07/22 09:10:35;;;;;;;3.13;2.00;;;23.70;81.10;;;;;;4969351;28;20396;-21
2023/07/22 09:13:01;;;;;;;2.57;1.80;;;24.00;81.20;;;;;;4979167;28;20523;-20
2023/07/22 09:15:28;;;;;;;3.38;1.75;;;24.50;80.40;;;;;;4957245;28;20495;-21
2023/07/22 09:17:55;;;;;;;2.80;1.60;;;24.80;79.70;;;;;;4989729;28;20646;-21
2023/07/22 09:20:21;;;;;;;2.55;1.80;;;25.10;78.90;;;;;;4984264;28;20116;-21
2023/07/22 09:22:48;;;;;;;2.70;1.52;;;25.50;79.00;;;;;;4976393;28;20084;-22
2023/07/22 09:25:25;;;;;;;3.13;1.70;;;25.70;77.80;;;;;;4994575;28;20100;-27
2023/07/22 09:27:53;;;;;;;2.75;1.33;;;26.00;75.20;;;;;;4994246;28;20774;-23
2023/07/22 09:30:25;;;;;;;2.80;1.40;;;26.30;76.90;;;;;;4961311;28;20034;-24
2023/07/22 09:32:52;;;;;;;2.47;1.30;;;26.50;75.00;;;;;;4990432;28;20192;-23
2023/07/22 09:35:18;;;;;;;2.30;1.50;;;26.70;74.70;;;;;;4979207;28;20061;-25
2023/07/22 09:37:44;;;;;;;2.53;1.33;;;26.90;73.90;;;;;;4992762;28;20023;-25
2023/07/22 09:40:19;;;;;;;3.70;1.45;;;27.10;74.60;;;;;;4965834;28;20036;-22
2023/07/22 09:42:56;;;;;;;1.85;1.38;;;27.30;71.40;;;;;;4965393;28;20053;-27
2023/07/22 09:45:28;;;;;;;2.15;1.30;;;27.40;70.90;;;;;;4971730;28;20216;-21
2023/07/22 09:47:54;;;;;;;2.00;1.40;;;27.40;69.90;;;;;;4982530;28;20250;-23
2023/07/22 09:50:22;;;;;;;1.53;1.33;;;27.50;71.10;;;;;;5003069;28;20026;-22
2023/07/22 09:52:51;;;;;;;2.08;1.38;;;27.60;70.60;;;;;;4991289;28;20379;-21
2023/07/22 09:55:19;;;;;;;3.67;1.50;;;27.70;70.10;;;;;;4978310;28;20876;-23
2023/07/22 09:57:56;;;;;;;3.10;1.77;;;27.90;69.00;;;;;;4968164;28;20020;-20
2023/07/22 10:00:25;;;;;;;1.65;1.33;;;28.00;67.20;;;;;;4967779;28;20959;-21
2023/07/22 10:02:52;;;;;;;1.83;1.27;;;28.10;67.30;;;;;;4992109;28;20065;-25
2023/07/22 10:05:21;;;;;;;2.83;1.58;;;28.30;68.50;;;;;;4977680;28;20041;-21
2023/07/22 10:07:49;;;;;;;2.97;1.40;;;28.40;66.90;;;;;;4992794;28;20018;-21
2023/07/22 10:10:20;;;;;;;2.75;1.25;;;28.60;65.90;;;;;;4982923;28;20237;-21
2023/07/22 10:12:46;;;;;;;1.67;1.30;;;28.60;64.30;;;;;;4976261;28;20125;-21
2023/07/22 10:15:15;;;;;;;2.30;1.47;;;28.60;65.00;;;;;;5005289;28;20497;-21
2023/07/22 10:17:41;;;;;;;2.38;1.67;;;28.60;64.00;;;;;;4967679;28;20030;-21
2023/07/22 10:20:14;;;;;;;2.00;1.25;;;28.60;61.80;;;;;;4975248;28;20034;-22
2023/07/22 10:22:44;;;;;;;2.38;1.50;;;28.50;60.80;;;;;;4992236;28;20030;-22
2023/07/22 10:25:16;;;;;;;1.73;1.30;;;28.30;60.20;;;;;;4987919;28;20211;-21
2023/07/22 10:27:42;;;;;;;1.60;1.30;;;28.20;59.30;;;;;;4976800;28;20077;-22
2023/07/22 10:30:11;;;;;;;2.20;1.42;;;28.00;60.10;;;;;;4978754;28;20424;-22
2023/07/22 10:32:41;;;;;;;2.70;1.50;;;27.90;59.80;;;;;;4977576;28;20025;-21
2023/07/22 10:35:16;;;;;;;1.55;1.20;;;27.80;60.10;;;;;;4971427;28;20037;-21
2023/07/22 10:37:45;;;;;;;2.20;1.20;;;27.70;60.50;;;;;;4985884;28;20184;-21
2023/07/22 10:40:26;;;;;;;2.23;1.30;;;27.80;61.80;;;;;;4977669;28;20038;-22
2023/07/22 10:42:59;;;;;;;1.90;1.17;;;27.80;61.00;;;;;;4981829;28;20052;-24
2023/07/22 10:45:29;;;;;;;1.23;1.13;;;27.90;61.30;;;;;;4979525;28;20038;-22
2023/07/22 10:48:22;;;;;;;2.17;1.30;;;28.10;61.90;;;;;;4976038;28;20036;-21
2023/07/22 10:50:51;;;;;;;1.55;1.30;;;28.20;60.10;;;;;;4979871;28;20043;-20
2023/07/22 10:53:26;;;;;;;1.93;1.13;;;28.40;61.10;;;;;;4992825;28;20676;-24
2023/07/22 10:56:16;;;;;;;1.88;1.20;;;28.60;60.20;;;;;;4980116;28;20038;-20
2023/07/22 10:58:45;;;;;;;2.08;1.08;;;28.80;60.70;;;;;;4970097;28;20752;-21
2023/07/22 11:01:39;;;;;;;1.20;1.10;;;29.20;62.00;;;;;;5007460;28;20490;-23
2023/07/22 11:04:16;;;;;;;1.15;1.00;;;29.50;60.10;;;;;;4956049;28;20050;-24
2023/07/22 11:06:48;;;;;;;1.20;0.90;;;29.70;58.40;;;;;;4979918;28;20114;-22
2023/07/22 11:09:33;;;;;;;1.25;1.10;;;29.70;57.50;;;;;;4984875;28;20034;-22
2023/07/22 11:12:02;;;;;;;1.80;1.30;;;29.70;55.90;;;;;;4977561;28;20058;-21
2023/07/22 11:14:32;;;;;;;1.23;1.02;;;29.70;57.60;;;;;;4973414;28;20216;-21
2023/07/22 11:17:00;;;;;;;1.60;0.98;;;29.70;55.90;;;;;;5004734;28;20014;-22
2023/07/22 11:19:27;;;;;;;1.33;1.20;;;29.60;56.00;;;;;;4967582;28;20044;-21
2023/07/22 11:21:54;;;;;;;1.70;1.30;;;29.60;56.80;;;;;;4987068;28;20025;-21
2023/07/22 11:24:20;;;;;;;1.60;1.05;;;29.50;56.70;;;;;;4990878;28;20029;-21
2023/07/22 11:26:47;;;;;;;1.20;1.10;;;29.50;55.70;;;;;;4995882;28;20476;-21
2023/07/22 11:29:14;;;;;;;1.50;1.10;;;29.40;54.90;;;;;;5005495;28;20018;-22
2023/07/22 11:31:46;;;;;;;1.60;1.10;;;29.30;54.70;;;;;;5005202;28;20026;-20
2023/07/22 11:34:12;;;;;;;1.65;1.15;;;29.00;53.60;;;;;;4978972;28;20018;-20
2023/07/22 11:36:38;;;;;;;1.52;1.02;;;28.90;54.50;;;;;;4967541;28;20022;-21
2023/07/22 11:39:09;;;;;;;1.43;0.93;;;28.70;54.50;;;;;;4974649;28;20042;-20
2023/07/22 11:41:35;;;;;;;2.50;1.10;;;28.70;55.30;;;;;;4995608;28;20030;-21
2023/07/22 11:44:09;;;;;;;1.60;1.10;;;28.70;56.30;;;;;;4990896;28;20019;-21
2023/07/22 11:46:46;;;;;;;1.20;1.10;;;28.80;55.60;;;;;;4975830;28;20126;-21
2023/07/22 11:49:12;;;;;;;1.73;1.20;;;28.90;56.50;;;;;;4991054;28;20081;-20
2023/07/22 11:51:42;;;;;;;1.77;1.30;;;29.00;57.70;;;;;;4966587;28;20110;-22
2023/07/22 11:54:08;;;;;;;1.38;1.27;;;29.30;56.80;;;;;;4987167;28;20038;-24
2023/07/22 11:56:34;;;;;;;1.60;1.40;;;29.60;57.20;;;;;;4985728;28;20428;-20
2023/07/22 11:59:00;;;;;;;2.03;1.30;;;29.90;57.30;;;;;;4986952;28;20703;-21
2023/07/22 12:01:32;;;;;;;2.13;1.20;;;30.20;56.10;;;;;;4982097;28;20276;-22
2023/07/22 12:04:00;;;;;;;1.25;1.00;;;30.40;54.50;;;;;;4976858;28;20046;-23
2023/07/22 12:06:27;;;;;;;1.98;1.30;;;30.60;56.00;;;;;;4962537;28;20594;-22
2023/07/22 12:08:53;;;;;;;1.33;1.23;;;30.90;55.90;;;;;;4988648;28;20041;-22
2023/07/22 12:11:21;;;;;;;1.67;1.15;;;31.10;55.30;;;;;;4981104;28;20741;-22
2023/07/22 12:13:50;;;;;;;1.30;1.20;;;31.30;54.40;;;;;;4999296;28;20033;-21
2023/07/22 12:16:25;;;;;;;1.92;1.20;;;31.40;54.40;;;;;;4973676;28;20049;-21
2023/07/22 12:18:56;;;;;;;1.77;1.30;;;31.50;52.60;;;;;;4990512;28;20026;-22
2023/07/22 12:21:21;;;;;;;1.33;1.23;;;31.60;51.90;;;;;;4947416;28;21013;-21
2023/07/22 12:23:47;;;;;;;1.98;1.23;;;31.60;51.50;;;;;;4982022;28;20722;-21
2023/07/22 12:26:13;;;;;;;1.80;1.25;;;31.40;50.80;;;;;;4970170;28;20088;-22
2023/07/22 12:28:39;;;;;;;1.50;1.20;;;31.30;51.10;;;;;;4982779;28;20033;-22
2023/07/22 12:31:04;;;;;;;1.70;1.30;;;31.20;51.60;;;;;;4978506;28;21370;-21
2023/07/22 12:33:31;;;;;;;1.30;1.20;;;31.30;51.30;;;;;;4980463;28;20060;-20
2023/07/22 12:35:57;;;;;;;1.65;1.38;;;31.30;50.70;;;;;;4993305;28;20052;-21
2023/07/22 12:38:23;;;;;;;2.05;1.35;;;31.30;50.10;;;;;;4958856;28;20026;-21
2023/07/22 12:40:49;;;;;;;1.63;1.23;;;31.10;49.30;;;;;;4998656;28;20593;-21
2023/07/22 12:43:15;;;;;;;1.77;1.23;;;30.90;49.40;;;;;;4980507;28;20088;-22
2023/07/22 12:45:40;;;;;;;1.80;1.20;;;30.90;50.40;;;;;;4984885;28;20148;-21
2023/07/22 12:48:06;;;;;;;1.50;1.23;;;30.80;49.40;;;;;;4984055;28;20030;-24
2023/07/22 12:50:33;;;;;;;1.83;1.30;;;30.80;49.30;;;;;;4989510;28;20159;-21